X  Close Metar Aviation Weather Data     KSEA Seattle–Tacoma International Airport
Temperature
70°F Temperature
54°F Dewpoint
57% Humidity



Wind
12 MPH
19 KM/H
5 M/S
10 KTS



350°
North
Current Conditions

Clear Clear
Pressure 1016.92 (hPa) - 30.03 (inHg)
Visibility 10 (mile) - 16.1 (km)
Airport
Airport-code KSEA

Location: Seattle–Tacoma International Airport
Distance: 14 (mi)

Metar:
KSEA 011853Z 35010KT 10SM CLR 21/12 A3003 RMK AO2 SLP173 T02110117

Time: 10-01-2022 11:53 PDT